Time;durP1;ratioP1;P1;durP2;ratioP2;P2;SDS_P1;SDS_P2;PMS_P1;PMS_P2;Temp;Humidity;BMP_temperature;BMP_pressure;BME280_temperature;BME280_humidity;BME280_pressure;Samples;Min_cycle;Max_cycle;Signal;HPM_P1;HPM_P2
2023/08/30 00:00:11;;;;;;;4.80;2.60;;;;;;;22.04;48.84;100820.59;4925422;29;20035;-70
2023/08/30 00:02:36;;;;;;;5.55;2.75;;;;;;;22.05;48.81;100821.44;4924848;29;20111;-80
2023/08/30 00:05:03;;;;;;;4.90;2.53;;;;;;;22.04;48.88;100820.59;4925201;29;20031;-78
2023/08/30 00:07:29;;;;;;;4.65;2.60;;;;;;;22.03;48.60;100824.25;4925339;29;20041;-77
2023/08/30 00:09:54;;;;;;;5.00;2.80;;;;;;;22.03;48.58;100821.59;4925047;29;20039;-72
2023/08/30 00:12:20;;;;;;;5.68;2.55;;;;;;;22.02;48.67;100821.75;4924663;29;20106;-73
2023/08/30 00:14:45;;;;;;;4.50;2.45;;;;;;;22.01;48.80;100814.75;4925088;29;20047;-70
2023/08/30 00:17:11;;;;;;;5.50;2.80;;;;;;;22.01;48.97;100815.56;4924854;29;20155;-69
2023/08/30 00:19:36;;;;;;;5.22;2.70;;;;;;;22.00;48.94;100811.28;4924617;29;20031;-80
2023/08/30 00:22:02;;;;;;;6.93;2.90;;;;;;;21.98;48.36;100810.56;4924917;28;20023;-77
2023/08/30 00:24:28;;;;;;;6.13;2.70;;;;;;;21.99;48.56;100809.59;4924044;29;20425;-70
2023/08/30 00:26:53;;;;;;;4.72;2.65;;;;;;;21.98;48.95;100805.25;4924124;29;20035;-81
2023/08/30 00:29:19;;;;;;;5.35;2.70;;;;;;;21.97;48.60;100814.22;4924687;28;20054;-72
2023/08/30 00:31:44;;;;;;;6.63;2.60;;;;;;;21.96;48.73;100809.91;4923011;29;20379;-74
2023/08/30 00:34:09;;;;;;;5.35;2.72;;;;;;;21.96;48.46;100809.91;4923548;29;20031;-79
2023/08/30 00:36:35;;;;;;;5.43;2.88;;;;;;;21.97;48.81;100803.63;4925090;29;20036;-79
2023/08/30 00:39:00;;;;;;;5.75;2.58;;;;;;;21.95;48.62;100802.91;4924105;29;20031;-70
2023/08/30 00:41:25;;;;;;;5.43;2.75;;;;;;;21.95;48.68;100802.91;4924939;29;20039;-70
2023/08/30 00:43:51;;;;;;;4.03;2.50;;;;;;;21.95;48.83;100802.91;4923962;29;20434;-74
2023/08/30 00:46:16;;;;;;;6.00;2.85;;;;;;;21.94;48.59;100795.94;4924392;29;20114;-71
2023/08/30 00:48:42;;;;;;;5.25;2.72;;;;;;;21.93;48.27;100786.31;4924664;29;20032;-78
2023/08/30 00:51:11;;;;;;;6.90;2.72;;;;;;;21.92;48.60;100781.97;4924885;28;20031;-75
2023/08/30 00:53:36;;;;;;;4.80;2.50;;;;;;;21.91;48.37;100775.84;4922558;29;20054;-79
2023/08/30 00:56:01;;;;;;;5.40;3.13;;;;;;;21.92;48.42;100782.84;4924639;29;20498;-70
2023/08/30 00:58:27;;;;;;;4.85;2.63;;;;;;;21.91;48.50;100781.16;4923879;29;20307;-74
2023/08/30 01:00:53;;;;;;;5.10;2.67;;;;;;;21.90;48.66;100776.84;4922277;29;20126;-69
2023/08/30 01:03:21;;;;;;;5.78;2.55;;;;;;;21.90;48.17;100776.00;4924169;29;20414;-71
2023/08/30 01:05:47;;;;;;;5.82;2.38;;;;;;;21.90;48.19;100776.00;4923732;29;20039;-74
2023/08/30 01:08:13;;;;;;;5.00;2.50;;;;;;;21.89;48.24;100769.06;4923278;29;20095;-78
2023/08/30 01:10:53;;;;;;;4.35;2.60;;;;;;;21.88;48.15;100775.34;4938382;29;20039;-70
2023/08/30 01:13:20;;;;;;;6.28;3.00;;;;;;;21.90;48.34;100778.66;4923509;29;20413;-75
2023/08/30 01:15:51;;;;;;;4.50;2.42;;;;;;;21.88;48.29;100775.34;4923586;29;20055;-71
2023/08/30 01:18:19;;;;;;;5.00;2.80;;;;;;;21.87;48.27;100771.00;4923646;29;20043;-76
2023/08/30 01:20:46;;;;;;;5.38;2.55;;;;;;;21.87;48.12;100771.84;4937888;29;20048;-74
2023/08/30 01:23:40;;;;;;;5.63;2.63;;;;;;;21.87;48.07;100771.00;4924295;29;20090;-71
2023/08/30 01:26:20;;;;;;;5.20;2.77;;;;;;;21.87;48.08;100769.19;4925419;28;20044;-76
2023/08/30 01:28:47;;;;;;;5.32;2.90;;;;;;;21.86;47.97;100764.88;4923475;29;20044;-76
2023/08/30 01:31:14;;;;;;;4.93;2.47;;;;;;;21.87;48.45;100765.69;4923437;29;20567;-80
2023/08/30 01:33:40;;;;;;;5.57;2.80;;;;;;;21.86;48.38;100766.69;4923820;29;20035;-69
2023/08/30 01:36:06;;;;;;;4.65;2.40;;;;;;;21.85;47.89;100763.19;4923222;29;20182;-80
2023/08/30 01:38:32;;;;;;;7.20;3.28;;;;;;;21.84;48.18;100764.19;4923756;29;20043;-80
2023/08/30 01:40:59;;;;;;;4.93;2.50;;;;;;;21.84;48.17;100763.34;4922733;29;20730;-77
2023/08/30 01:43:26;;;;;;;4.90;2.80;;;;;;;21.83;48.00;100759.88;4922653;29;20051;-72
2023/08/30 01:45:52;;;;;;;7.13;2.78;;;;;;;21.82;47.99;100760.84;4922884;29;20032;-76
2023/08/30 01:48:19;;;;;;;4.50;2.47;;;;;;;21.83;47.77;100772.31;4922910;29;20036;-78
2023/08/30 01:50:45;;;;;;;5.88;2.53;;;;;;;21.82;47.85;100758.19;4922238;29;20094;-71
2023/08/30 01:53:12;;;;;;;4.82;2.58;;;;;;;21.81;48.02;100756.53;4923028;29;20497;-69
2023/08/30 01:55:39;;;;;;;5.15;2.67;;;;;;;21.81;48.05;100759.19;4922658;29;20039;-71
2023/08/30 01:58:06;;;;;;;5.13;2.80;;;;;;;21.81;47.65;100758.34;4922408;29;20091;-74
2023/08/30 02:00:31;;;;;;;5.13;2.42;;;;;;;21.81;47.90;100755.69;4922656;29;20072;-70
2023/08/30 02:02:57;;;;;;;7.03;3.83;;;;;;;21.80;47.68;100756.69;4922052;29;20456;-71
2023/08/30 02:05:22;;;;;;;5.47;2.53;;;;;;;21.80;47.61;100762.00;4923019;29;20086;-76
2023/08/30 02:07:58;;;;;;;5.28;2.65;;;;;;;21.79;47.79;100763.78;4921035;29;20039;-70
2023/08/30 02:10:37;;;;;;;4.53;2.40;;;;;;;21.77;47.61;100763.13;4922856;29;20035;-76
2023/08/30 02:13:04;;;;;;;5.00;2.65;;;;;;;21.78;47.67;100761.28;4922985;29;20071;-78
2023/08/30 02:15:32;;;;;;;4.90;2.85;;;;;;;21.78;47.61;100755.97;4922882;29;20055;-71
2023/08/30 02:17:59;;;;;;;4.30;2.15;;;;;;;21.78;47.41;100748.03;4921520;29;20508;-70
2023/08/30 02:20:24;;;;;;;5.85;2.72;;;;;;;21.77;47.75;100751.69;4923151;29;20051;-73
2023/08/30 02:22:50;;;;;;;4.25;2.47;;;;;;;21.77;47.64;100743.72;4922338;29;20035;-70
2023/08/30 02:25:15;;;;;;;5.30;2.90;;;;;;;21.77;47.80;100743.72;4922357;29;20155;-69
2023/08/30 02:27:41;;;;;;;5.45;2.67;;;;;;;21.76;47.70;100740.22;4922819;29;20042;-70
2023/08/30 02:30:07;;;;;;;5.30;2.53;;;;;;;21.71;47.90;100724.78;4922542;29;20497;-78
2023/08/30 02:32:32;;;;;;;4.32;2.35;;;;;;;21.75;47.80;100733.25;4936907;29;20035;-70
2023/08/30 02:34:58;;;;;;;4.55;2.90;;;;;;;21.74;47.57;100729.75;4921947;29;20512;-70
2023/08/30 02:37:24;;;;;;;4.85;2.63;;;;;;;21.74;47.92;100728.94;4921966;29;20041;-80
2023/08/30 02:39:49;;;;;;;4.88;2.70;;;;;;;21.74;47.80;100729.75;4921595;29;20027;-79
2023/08/30 02:42:14;;;;;;;5.07;2.78;;;;;;;21.73;47.88;100730.75;4937260;29;20042;-70
2023/08/30 02:44:40;;;;;;;5.82;2.75;;;;;;;21.73;48.09;100722.81;4921866;29;20035;-74
2023/08/30 02:47:05;;;;;;;5.38;2.60;;;;;;;21.73;47.85;100730.75;4921993;28;20043;-77
2023/08/30 02:49:30;;;;;;;5.70;2.80;;;;;;;21.72;47.97;100726.44;4922025;29;20066;-74
2023/08/30 02:51:56;;;;;;;6.07;2.50;;;;;;;21.73;47.91;100721.97;4922755;29;20044;-78
2023/08/30 02:54:22;;;;;;;5.85;2.85;;;;;;;21.70;48.07;100717.81;4921702;29;20036;-71
2023/08/30 02:56:47;;;;;;;4.88;2.50;;;;;;;21.71;47.89;100719.47;4922408;29;20046;-79
2023/08/30 02:59:13;;;;;;;5.43;2.80;;;;;;;21.71;48.07;100718.63;4922230;29;20036;-70
2023/08/30 03:01:38;;;;;;;4.68;2.25;;;;;;;21.71;47.88;100706.22;4922437;29;20315;-73
2023/08/30 03:04:07;;;;;;;5.47;2.50;;;;;;;21.70;48.36;100709.84;4922582;29;20110;-69
2023/08/30 03:06:34;;;;;;;5.45;2.60;;;;;;;21.71;48.34;100715.97;4922119;29;20176;-74
2023/08/30 03:08:59;;;;;;;5.97;2.80;;;;;;;21.70;48.25;100709.84;4921930;29;20593;-70
2023/08/30 03:11:24;;;;;;;6.07;2.80;;;;;;;21.70;48.36;100715.16;4922117;28;20150;-70
2023/08/30 03:13:50;;;;;;;4.13;2.47;;;;;;;21.70;48.11;100709.03;4921109;29;20507;-75
2023/08/30 03:16:17;;;;;;;6.20;3.00;;;;;;;21.70;48.47;100706.38;4922494;29;20031;-69
2023/08/30 03:18:43;;;;;;;5.15;2.88;;;;;;;21.69;48.20;100705.50;4921057;29;20071;-69
2023/08/30 03:21:09;;;;;;;5.30;3.00;;;;;;;21.68;48.22;100703.00;4921185;29;20039;-76
2023/08/30 03:23:35;;;;;;;4.90;2.95;;;;;;;21.68;48.58;100701.22;4922080;28;20043;-72
2023/08/30 03:26:11;;;;;;;4.90;2.90;;;;;;;21.68;48.61;100700.38;4921415;29;20601;-70
2023/08/30 03:28:38;;;;;;;5.90;2.65;;;;;;;21.68;48.47;100700.38;4920882;29;20104;-77
2023/08/30 03:31:12;;;;;;;5.05;2.72;;;;;;;21.68;48.46;100689.75;4925125;29;20036;-74
2023/08/30 03:33:37;;;;;;;4.80;2.70;;;;;;;21.69;48.55;100694.09;4924662;29;20023;-74
2023/08/30 03:36:02;;;;;;;5.43;2.53;;;;;;;21.69;48.58;100676.34;4923687;29;20036;-70
2023/08/30 03:38:28;;;;;;;6.30;3.45;;;;;;;21.68;48.25;100674.69;4925715;29;20582;-71
2023/08/30 03:40:54;;;;;;;5.53;2.55;;;;;;;21.68;48.67;100671.19;4924837;29;20032;-79
2023/08/30 03:43:19;;;;;;;4.95;3.03;;;;;;;21.68;48.38;100669.41;4924982;29;20042;-71
2023/08/30 03:45:46;;;;;;;4.88;2.80;;;;;;;21.67;48.65;100653.63;4925166;29;20043;-70
2023/08/30 03:48:11;;;;;;;4.88;2.67;;;;;;;21.66;48.54;100647.47;4925164;29;20047;-69
2023/08/30 03:50:36;;;;;;;4.50;2.47;;;;;;;21.67;48.65;100641.19;4924900;29;20039;-72
2023/08/30 03:53:02;;;;;;;5.43;2.80;;;;;;;21.66;48.50;100638.69;4925715;29;20039;-70
2023/08/30 03:55:27;;;;;;;5.00;2.58;;;;;;;21.67;48.86;100641.19;4925295;29;20067;-71
2023/08/30 03:57:52;;;;;;;4.40;2.43;;;;;;;21.66;48.46;100631.56;4925053;29;20090;-75
2023/08/30 04:00:18;;;;;;;5.40;2.95;;;;;;;21.65;48.61;100623.75;4925649;29;20791;-70
2023/08/30 04:02:44;;;;;;;7.30;3.00;;;;;;;21.64;49.07;100609.66;4924193;29;20400;-78
2023/08/30 04:05:09;;;;;;;5.22;2.83;;;;;;;21.66;48.79;100615.66;4940018;29;20448;-74
2023/08/30 04:07:37;;;;;;;6.13;2.63;;;;;;;21.65;48.63;100606.06;4925238;29;20035;-69
2023/08/30 04:10:06;;;;;;;5.43;2.72;;;;;;;21.65;48.43;100608.69;4925028;29;20046;-71
2023/08/30 04:12:32;;;;;;;5.18;2.90;;;;;;;21.64;48.43;100601.72;4925272;29;20043;-69
2023/08/30 04:14:57;;;;;;;5.43;2.88;;;;;;;21.65;48.61;100597.25;4924470;29;20128;-71
2023/08/30 04:17:24;;;;;;;6.18;3.17;;;;;;;21.64;48.56;100600.91;4924938;29;20335;-77
2023/08/30 04:19:52;;;;;;;7.03;2.70;;;;;;;21.61;48.44;100604.69;4924924;29;20043;-75
2023/08/30 04:22:18;;;;;;;4.50;2.80;;;;;;;21.63;48.51;100605.34;4924207;29;20032;-74
2023/08/30 04:24:43;;;;;;;4.65;2.70;;;;;;;21.63;48.47;100615.13;4923375;29;20436;-78
2023/08/30 04:27:08;;;;;;;5.60;2.92;;;;;;;21.63;48.81;100609.81;4925054;29;20056;-71
2023/08/30 04:29:34;;;;;;;4.97;3.17;;;;;;;21.63;48.63;100612.47;4924059;28;20659;-78
2023/08/30 04:31:59;;;;;;;5.57;2.95;;;;;;;21.63;48.63;100604.53;4923670;29;20065;-71
2023/08/30 04:34:24;;;;;;;5.05;2.80;;;;;;;21.62;48.75;100601.06;4926358;29;20408;-74
2023/08/30 04:36:50;;;;;;;4.87;2.67;;;;;;;21.62;49.05;100595.75;4923853;29;20477;-71
2023/08/30 04:39:15;;;;;;;5.05;2.55;;;;;;;21.62;48.58;100589.59;4923693;29;20478;-75
2023/08/30 04:41:40;;;;;;;5.40;2.90;;;;;;;21.62;48.78;100598.41;4923649;29;20468;-70
2023/08/30 04:44:05;;;;;;;5.47;2.72;;;;;;;21.61;48.78;100591.41;4924056;29;20027;-73
2023/08/30 04:46:31;;;;;;;5.50;3.10;;;;;;;21.62;48.95;100597.53;4924215;29;20058;-69
2023/08/30 04:48:56;;;;;;;5.18;2.53;;;;;;;21.61;48.85;100585.28;4923753;29;20031;-74
2023/08/30 04:51:21;;;;;;;5.18;2.72;;;;;;;21.62;48.92;100587.78;4924564;29;20042;-71
2023/08/30 04:53:47;;;;;;;4.45;2.60;;;;;;;21.61;48.64;100586.13;4923351;29;20103;-72
2023/08/30 04:56:13;;;;;;;5.45;2.85;;;;;;;21.60;48.99;100579.13;4923950;29;20036;-71
2023/08/30 04:58:39;;;;;;;5.93;2.63;;;;;;;21.61;48.80;100582.63;4923691;29;20036;-71
2023/08/30 05:01:08;;;;;;;4.95;2.65;;;;;;;21.59;49.24;100574.84;4923791;29;20397;-72
2023/08/30 05:03:33;;;;;;;4.93;2.83;;;;;;;21.60;49.03;100573.00;4923842;29;20091;-69
2023/08/30 05:05:59;;;;;;;5.22;2.70;;;;;;;21.60;48.79;100573.00;4923090;28;20457;-75
2023/08/30 05:08:24;;;;;;;5.03;2.80;;;;;;;21.60;49.20;100573.84;4907054;29;20040;-69
2023/08/30 05:10:49;;;;;;;4.25;2.80;;;;;;;21.60;49.52;100573.00;4923242;29;20833;-75
2023/08/30 05:13:16;;;;;;;4.78;2.38;;;;;;;21.57;49.01;100568.88;4923931;29;20035;-70
2023/08/30 05:15:41;;;;;;;4.43;2.60;;;;;;;21.59;49.18;100571.34;4923402;29;20051;-74
2023/08/30 05:18:07;;;;;;;4.70;3.03;;;;;;;21.59;49.29;100558.94;4923793;29;20043;-80
2023/08/30 05:20:32;;;;;;;6.68;2.70;;;;;;;21.59;49.19;100553.63;4923248;29;20728;-73
2023/08/30 05:22:58;;;;;;;6.70;2.90;;;;;;;21.60;49.31;100549.16;4923923;29;20047;-77
2023/08/30 05:25:23;;;;;;;5.38;2.80;;;;;;;21.58;49.52;100554.59;4923638;29;20495;-70
2023/08/30 05:27:49;;;;;;;7.07;2.80;;;;;;;21.58;49.10;100549.28;4923230;29;20408;-74
2023/08/30 05:30:15;;;;;;;5.70;2.65;;;;;;;21.58;49.30;100551.94;4923473;29;20039;-75
2023/08/30 05:32:40;;;;;;;5.95;2.92;;;;;;;21.58;49.65;100557.25;4923444;29;20035;-73
2023/08/30 05:35:06;;;;;;;6.47;2.70;;;;;;;21.59;49.52;100560.72;4921835;29;20086;-71
2023/08/30 05:37:31;;;;;;;5.20;2.70;;;;;;;21.58;49.58;100562.56;4923681;29;20039;-71
2023/08/30 05:39:57;;;;;;;5.85;2.70;;;;;;;21.58;49.49;100548.47;4922969;29;20039;-71
2023/08/30 05:42:23;;;;;;;5.13;2.60;;;;;;;21.58;49.20;100540.53;4923084;29;20228;-70
2023/08/30 05:44:48;;;;;;;4.43;2.60;;;;;;;21.58;49.66;100545.81;4923375;29;20039;-79
2023/08/30 05:47:15;;;;;;;4.35;2.58;;;;;;;21.58;49.60;100546.66;4923347;29;20036;-69
2023/08/30 05:49:40;;;;;;;4.45;2.53;;;;;;;21.57;49.46;100539.69;4923098;29;20139;-72
2023/08/30 05:52:06;;;;;;;5.03;2.72;;;;;;;21.57;49.42;100534.41;4922487;29;20119;-75
2023/08/30 05:54:33;;;;;;;4.40;2.45;;;;;;;21.58;49.62;100532.56;4923132;29;20042;-77
2023/08/30 05:56:58;;;;;;;4.43;2.40;;;;;;;21.56;49.46;100525.59;4922817;28;20035;-71
2023/08/30 05:59:24;;;;;;;6.13;3.10;;;;;;;21.57;49.85;100523.78;4922020;29;20050;-72
2023/08/30 06:01:49;;;;;;;5.32;2.83;;;;;;;21.56;49.96;100524.75;4922936;29;20036;-75
2023/08/30 06:04:14;;;;;;;4.80;2.60;;;;;;;21.58;49.74;100522.78;4921797;29;20548;-71
2023/08/30 06:06:40;;;;;;;6.25;2.97;;;;;;;21.56;49.95;100522.94;4923524;28;20128;-69
2023/08/30 06:09:05;;;;;;;5.47;3.03;;;;;;;21.56;50.00;100522.13;4922576;29;20027;-73
2023/08/30 06:11:31;;;;;;;5.35;2.90;;;;;;;21.58;49.55;100527.25;4923378;29;20036;-71
2023/08/30 06:13:58;;;;;;;5.10;2.92;;;;;;;21.56;50.06;100522.94;4922777;29;20148;-74
2023/08/30 06:16:24;;;;;;;5.25;3.00;;;;;;;21.57;49.76;100518.50;4923060;29;20573;-72
2023/08/30 06:18:49;;;;;;;4.72;2.50;;;;;;;21.56;49.91;100520.28;4923000;29;20071;-74
2023/08/30 06:21:15;;;;;;;5.33;2.70;;;;;;;21.60;49.52;100520.78;4922695;29;20039;-72
2023/08/30 06:23:40;;;;;;;4.68;2.50;;;;;;;21.66;49.76;100516.72;4921535;29;20276;-73
2023/08/30 06:26:05;;;;;;;4.07;2.35;;;;;;;21.66;49.72;100509.56;4922596;29;20448;-77
2023/08/30 06:28:31;;;;;;;6.57;2.63;;;;;;;21.67;50.02;100508.59;4922082;29;20038;-72
2023/08/30 06:30:57;;;;;;;5.97;2.40;;;;;;;21.70;49.80;100512.78;4921720;29;20102;-76
2023/08/30 06:33:22;;;;;;;4.65;2.33;;;;;;;21.68;49.79;100515.56;4922266;29;20663;-73
2023/08/30 06:35:49;;;;;;;4.55;2.45;;;;;;;21.69;50.06;100517.22;4920768;29;20036;-72
2023/08/30 06:38:14;;;;;;;5.78;2.45;;;;;;;21.69;50.37;100519.03;4921532;29;20040;-76
2023/08/30 06:40:45;;;;;;;7.03;2.53;;;;;;;21.68;50.52;100531.47;4921493;29;20129;-74
2023/08/30 06:43:10;;;;;;;4.68;2.28;;;;;;;21.67;50.54;100535.13;4921972;29;20266;-78
2023/08/30 06:45:35;;;;;;;4.50;2.40;;;;;;;21.64;50.43;100532.78;4922064;29;20046;-71
2023/08/30 06:48:01;;;;;;;7.05;2.42;;;;;;;21.65;50.81;100523.84;4922584;29;20083;-76
2023/08/30 06:50:26;;;;;;;5.10;2.65;;;;;;;21.63;50.80;100519.66;4922114;29;20098;-70
2023/08/30 06:52:51;;;;;;;5.88;2.30;;;;;;;21.62;50.77;100528.59;4921146;29;20419;-76
2023/08/30 06:55:16;;;;;;;4.88;2.58;;;;;;;21.62;50.71;100525.94;4922042;29;20046;-72
2023/08/30 06:57:48;;;;;;;4.65;2.40;;;;;;;21.63;50.90;100532.94;4921165;29;20039;-75
2023/08/30 07:00:14;;;;;;;6.15;2.53;;;;;;;21.64;51.15;100540.72;4921553;29;20765;-70
2023/08/30 07:02:40;;;;;;;6.45;2.63;;;;;;;21.63;51.18;100528.44;4921452;29;20028;-71
2023/08/30 07:05:06;;;;;;;5.38;2.42;;;;;;;21.63;50.95;100531.09;4924928;28;20115;-72
2023/08/30 07:07:31;;;;;;;4.15;2.20;;;;;;;21.61;51.31;100535.72;4925028;29;20118;-71
2023/08/30 07:09:57;;;;;;;5.22;2.40;;;;;;;21.63;51.04;100522.31;4925363;29;20039;-73
2023/08/30 07:12:22;;;;;;;5.80;2.50;;;;;;;21.62;51.42;100502.09;4925524;29;20120;-78
2023/08/30 07:14:48;;;;;;;6.40;2.70;;;;;;;21.61;51.26;100495.97;4925348;29;20587;-70
2023/08/30 07:17:13;;;;;;;5.20;2.38;;;;;;;21.62;51.84;100492.31;4925555;29;20059;-77
2023/08/30 07:19:39;;;;;;;4.20;2.22;;;;;;;21.61;51.77;100490.66;4924601;29;20039;-66
2023/08/30 07:22:04;;;;;;;5.45;2.38;;;;;;;21.63;51.99;100482.53;4925441;29;20040;-76
2023/08/30 07:24:29;;;;;;;8.23;2.63;;;;;;;21.63;51.92;100478.06;4925834;29;20036;-81
2023/08/30 07:26:55;;;;;;;8.98;2.60;;;;;;;21.65;52.08;100473.47;4925829;29;20485;-73
2023/08/30 07:29:20;;;;;;;5.18;2.17;;;;;;;21.69;51.72;100479.28;4925837;29;20193;-76
2023/08/30 07:31:45;;;;;;;5.50;2.38;;;;;;;21.69;52.06;100474.78;4925722;29;20043;-71
2023/08/30 07:34:11;;;;;;;9.30;2.77;;;;;;;21.67;51.52;100478.59;4925375;29;20131;-78
2023/08/30 07:36:36;;;;;;;5.55;2.38;;;;;;;21.72;52.06;100481.59;4925527;29;20631;-75
2023/08/30 07:39:03;;;;;;;7.57;2.38;;;;;;;21.71;52.25;100478.13;4925494;29;20035;-77
2023/08/30 07:41:28;;;;;;;6.18;2.58;;;;;;;21.73;51.72;100465.53;4925364;29;20408;-73
2023/08/30 07:43:53;;;;;;;5.22;2.03;;;;;;;21.72;51.46;100465.69;4925462;29;20047;-74
2023/08/30 07:46:19;;;;;;;5.53;2.40;;;;;;;21.73;51.60;100467.38;4925899;29;20544;-81
2023/08/30 07:48:44;;;;;;;6.88;2.70;;;;;;;21.73;51.95;100470.03;4940226;29;20040;-75
2023/08/30 07:51:09;;;;;;;5.38;2.33;;;;;;;21.73;51.71;100465.53;4927427;29;20034;-82
2023/08/30 07:53:35;;;;;;;5.05;2.28;;;;;;;21.73;51.69;100470.84;4926284;29;20035;-73
2023/08/30 07:56:00;;;;;;;7.20;2.10;;;;;;;21.72;52.03;100461.22;4925754;29;20599;-77
2023/08/30 07:58:25;;;;;;;5.88;2.60;;;;;;;21.72;51.87;100455.91;4925689;29;20036;-75
2023/08/30 08:00:52;;;;;;;4.50;2.30;;;;;;;21.68;52.13;100464.34;4925403;29;20039;-76
2023/08/30 08:03:17;;;;;;;4.88;2.22;;;;;;;21.70;52.28;100468.50;4925297;29;20138;-75
2023/08/30 08:05:43;;;;;;;7.00;2.33;;;;;;;21.71;51.79;100466.69;4924859;29;20042;-76
2023/08/30 08:08:10;;;;;;;4.78;1.92;;;;;;;21.70;52.26;100465.84;4925854;29;20158;-75
2023/08/30 08:10:36;;;;;;;4.78;2.10;;;;;;;21.71;51.81;100467.53;4924991;29;20256;-76
2023/08/30 08:13:03;;;;;;;7.07;2.10;;;;;;;21.72;51.98;100469.16;4926197;29;20027;-78
2023/08/30 08:15:33;;;;;;;6.22;2.28;;;;;;;21.72;51.86;100471.81;4924071;29;20089;-73
2023/08/30 08:17:58;;;;;;;5.15;1.98;;;;;;;21.73;52.04;100468.19;4924390;29;20043;-74
2023/08/30 08:20:24;;;;;;;5.85;2.13;;;;;;;21.71;52.21;100458.72;4921591;29;20516;-76
2023/08/30 08:22:49;;;;;;;4.18;1.90;;;;;;;21.69;52.11;100455.41;4924785;29;20039;-72
2023/08/30 08:25:15;;;;;;;5.35;2.05;;;;;;;21.64;52.36;100460.34;4925120;29;20039;-76
2023/08/30 08:27:41;;;;;;;6.18;2.10;;;;;;;21.62;52.45;100470.25;4924270;29;20040;-79
2023/08/30 08:30:07;;;;;;;5.88;2.10;;;;;;;21.67;52.24;100471.47;4922608;29;20040;-73
2023/08/30 08:32:33;;;;;;;4.53;1.92;;;;;;;21.72;52.36;100469.16;4923734;29;20043;-72
2023/08/30 08:34:58;;;;;;;4.72;2.00;;;;;;;21.77;52.31;100468.69;4924496;29;20051;-70
2023/08/30 08:37:24;;;;;;;6.38;2.35;;;;;;;21.77;52.45;100467.88;4921169;29;20482;-70
2023/08/30 08:39:50;;;;;;;3.17;1.70;;;;;;;21.73;52.46;100468.19;4922150;29;20374;-73
2023/08/30 08:42:19;;;;;;;4.90;1.80;;;;;;;21.70;52.55;100462.38;4926379;29;20035;-70
2023/08/30 08:44:48;;;;;;;5.07;2.05;;;;;;;21.70;52.81;100460.53;4922616;29;20428;-75
2023/08/30 08:47:16;;;;;;;5.22;1.77;;;;;;;21.69;52.58;100464.19;4923720;28;20094;-77
2023/08/30 08:49:42;;;;;;;5.45;2.22;;;;;;;21.71;52.83;100470.19;4922984;29;20047;-71
2023/08/30 08:52:07;;;;;;;4.78;2.00;;;;;;;21.71;52.71;100461.38;4923203;29;20028;-69
2023/08/30 08:54:33;;;;;;;4.35;2.10;;;;;;;21.72;52.93;100466.53;4923198;28;20492;-70
2023/08/30 08:57:00;;;;;;;8.05;2.05;;;;;;;21.71;52.95;100472.84;4923282;29;20714;-70
2023/08/30 08:59:25;;;;;;;4.03;1.67;;;;;;;21.72;52.61;100469.16;4923281;29;20027;-72
2023/08/30 09:01:51;;;;;;;5.25;1.75;;;;;;;21.72;53.06;100474.47;4922967;29;20330;-76
2023/08/30 09:04:16;;;;;;;4.00;1.88;;;;;;;21.74;53.00;100467.19;4923762;29;20040;-76
2023/08/30 09:06:43;;;;;;;4.20;1.80;;;;;;;21.77;52.91;100467.88;4922588;29;20039;-75
2023/08/30 09:09:09;;;;;;;4.75;1.77;;;;;;;21.74;52.82;100469.84;4923859;29;20235;-70
2023/08/30 09:11:35;;;;;;;5.22;1.70;;;;;;;21.72;53.20;100465.69;4923067;29;20471;-69
2023/08/30 09:14:01;;;;;;;3.85;1.77;;;;;;;21.73;53.34;100462.06;4922752;29;20048;-70
2023/08/30 09:16:27;;;;;;;4.30;1.48;;;;;;;21.73;52.93;100462.88;4923159;29;20036;-75
2023/08/30 09:19:04;;;;;;;3.30;1.70;;;;;;;21.74;53.40;100459.22;4923503;29;20168;-74
2023/08/30 09:21:31;;;;;;;3.22;1.50;;;;;;;21.79;53.34;100456.09;4923396;29;20139;-74
2023/08/30 09:24:05;;;;;;;3.55;1.50;;;;;;;21.80;53.39;100459.59;4923455;29;20038;-73
2023/08/30 09:26:31;;;;;;;4.47;1.58;;;;;;;21.78;53.51;100459.75;4937812;28;20331;-69
2023/08/30 09:29:03;;;;;;;6.05;1.50;;;;;;;21.81;53.16;100463.91;4923719;29;20044;-80
2023/08/30 09:31:55;;;;;;;4.25;1.65;;;;;;;21.81;53.45;100464.75;4923104;29;20246;-75
2023/08/30 09:34:25;;;;;;;3.97;1.90;;;;;;;21.82;53.41;100463.75;4924217;29;20087;-68
2023/08/30 09:36:51;;;;;;;3.80;1.67;;;;;;;21.84;53.35;100469.75;4922494;29;20032;-71
2023/08/30 09:39:17;;;;;;;4.82;1.45;;;;;;;21.86;53.68;100470.41;4921178;29;20050;-78
2023/08/30 09:41:44;;;;;;;4.95;1.73;;;;;;;21.85;53.45;100470.56;4921421;28;20368;-68
2023/08/30 09:44:17;;;;;;;3.88;1.73;;;;;;;21.85;53.67;100470.56;4922491;29;20039;-68
2023/08/30 09:46:44;;;;;;;3.70;1.50;;;;;;;21.85;53.26;100470.56;4921940;29;20042;-69
2023/08/30 09:49:10;;;;;;;3.30;1.40;;;;;;;21.87;53.68;100465.94;4922303;29;20047;-70
2023/08/30 09:51:42;;;;;;;5.32;1.70;;;;;;;21.88;53.44;100470.25;4922453;29;20036;-76
2023/08/30 09:54:30;;;;;;;5.47;1.60;;;;;;;21.88;53.85;100472.91;4922378;29;20044;-73
2023/08/30 09:56:57;;;;;;;4.32;1.40;;;;;;;21.89;53.47;100463.97;4921825;29;20108;-77
2023/08/30 09:59:23;;;;;;;4.82;1.55;;;;;;;21.87;53.83;100469.44;4921704;29;20040;-70
2023/08/30 10:01:50;;;;;;;5.65;1.70;;;;;;;21.86;53.67;100462.44;4921115;29;20039;-71
2023/08/30 10:04:16;;;;;;;4.55;1.77;;;;;;;21.91;53.81;100459.31;4922212;29;20094;-76
2023/08/30 10:06:42;;;;;;;4.90;1.42;;;;;;;21.91;53.74;100454.03;4921911;28;20039;-76
2023/08/30 10:09:08;;;;;;;3.65;1.67;;;;;;;21.92;53.71;100445.06;4920982;29;20405;-76
2023/08/30 10:11:36;;;;;;;8.25;3.35;;;;;;;21.95;54.09;100442.09;4922058;29;20039;-79
2023/08/30 10:14:05;;;;;;;14.63;9.50;;;;;;;21.94;54.24;100445.75;4921763;28;20142;-76
2023/08/30 10:16:42;;;;;;;21.25;14.55;;;;;;;21.94;54.25;100440.44;4921619;29;20031;-79
2023/08/30 10:19:30;;;;;;;25.60;17.70;;;;;;;21.94;54.30;100443.09;4921958;29;20032;-77
2023/08/30 10:22:04;;;;;;;36.10;25.48;;;;;;;21.95;54.80;100439.44;4921359;29;20323;-70
2023/08/30 10:24:51;;;;;;;44.88;23.90;;;;;;;22.00;54.34;100436.31;4921879;29;20446;-75
2023/08/30 10:27:17;;;;;;;35.03;22.60;;;;;;;22.04;54.45;100435.00;4920959;29;20059;-74
2023/08/30 10:29:44;;;;;;;29.25;21.05;;;;;;;22.10;54.30;100434.38;4921617;29;20035;-71
2023/08/30 10:32:10;;;;;;;29.70;21.00;;;;;;;22.11;54.06;100430.69;4922514;29;20036;-70
2023/08/30 10:34:36;;;;;;;27.42;18.55;;;;;;;22.15;54.11;100428.56;4922401;29;20779;-70
2023/08/30 10:37:11;;;;;;;26.30;17.98;;;;;;;22.15;54.30;100434.69;4922422;29;20489;-73
2023/08/30 10:39:42;;;;;;;23.75;17.95;;;;;;;22.18;54.39;100434.38;4921579;29;20032;-77
2023/08/30 10:42:15;;;;;;;30.17;17.30;;;;;;;22.17;53.88;100423.94;4920545;29;20035;-69
2023/08/30 10:44:49;;;;;;;22.53;16.40;;;;;;;22.18;54.00;100431.72;4921212;29;20484;-78
2023/08/30 10:47:19;;;;;;;23.50;15.65;;;;;;;22.16;53.74;100428.41;4922127;29;20291;-69
2023/08/30 10:49:47;;;;;;;27.10;15.20;;;;;;;22.18;54.14;100428.25;4921254;28;20885;-69
2023/08/30 10:52:12;;;;;;;19.45;13.90;;;;;;;22.15;54.21;100424.09;4921602;29;20568;-75
2023/08/30 10:54:38;;;;;;;21.40;13.70;;;;;;;22.16;54.30;100427.56;4921203;29;20122;-71
2023/08/30 10:57:04;;;;;;;20.30;13.07;;;;;;;22.16;54.04;100417.81;4922474;29;20035;-78
2023/08/30 10:59:29;;;;;;;19.45;13.52;;;;;;;22.16;54.10;100425.75;4922111;28;20058;-73
2023/08/30 11:01:55;;;;;;;18.30;12.68;;;;;;;22.15;54.07;100431.22;4921938;29;20513;-77
2023/08/30 11:04:22;;;;;;;21.63;12.75;;;;;;;22.15;54.13;100425.94;4922599;29;20083;-69
2023/08/30 11:06:49;;;;;;;17.40;11.65;;;;;;;22.13;54.03;100420.78;4921316;28;20472;-71
2023/08/30 11:09:19;;;;;;;16.90;11.55;;;;;;;22.13;54.20;100423.44;4922352;29;20500;-70
2023/08/30 11:11:45;;;;;;;18.33;11.13;;;;;;;22.13;54.05;100415.47;4921824;28;20046;-73
2023/08/30 11:14:11;;;;;;;14.88;10.20;;;;;;;22.11;54.39;100420.09;4922602;29;20405;-69
2023/08/30 11:16:37;;;;;;;17.83;9.77;;;;;;;22.11;54.37;100428.03;4921749;29;20059;-71
2023/08/30 11:19:04;;;;;;;14.93;9.77;;;;;;;22.11;54.26;100422.75;4922220;29;20159;-68
2023/08/30 11:21:31;;;;;;;14.32;8.80;;;;;;;22.09;54.60;100425.56;4921714;29;20035;-74